Haymount, North Carolina
Current Conditions -  °F | °C
As of 11:53 PM on Wednesday 22 Oct 2014 (Local Time) from KFAY Reporting Station
Clear Clear  
Wind Chill: 54°   Ceiling: Unl
Heat Index: 54°   Visibility: 10mi
Dew Point: 41°   Wind: 9mph
Humidity: 62%   Direction: 300°WNW
Pressure: 30.04"   Gusts: NA
Location:  35.0522°N, 78.906°W
Report Text: KFAY 230353Z AUTO 30008KT 10SM CLR 12/05 A3004 RMK AO2 SLP166 T01220050
Loading
Personal Weather Stations






























Interactive Weather Map
Tropical Storm Tracking
New forecast layout! Learn more

10-Day Weather Forecast

Advertisements
Track Severe Weather on mobile